EZY1988 LEMG-EGCC
Flight info
| Callsign | EZY1988 |
|---|---|
| Flight time | 2h 33m |
| Altitude | 36000 |
| Route | BLN N865 BEXID/N0442F380 N865 VTB N867 BLV P87 BELEN DCT DIDIG UP87 TERPO UN867 AVANT UM184 HEMEL T420 ELVOS |
| Aircraft | A320/M-SDE3FGHIRWY/LB1 |
Departure
| Time | 2026-05-04 18:17 |
|---|---|
| Airport | Málaga-Costa del Sol Airport (LEMG) |
Arrival
| Time | 2026-05-04 20:50 |
|---|---|
| Airport | Manchester Airport (EGCC) |
| Time | Latitude | Longitude | Altitude | Speed | Heading |
|---|---|---|---|---|---|
| 2026-05-04 17:51 | 36.67551 | -4.49331 | 49 ft | 0 kts | 116° |
| 2026-05-04 18:06 | 36.67561 | -4.49353 | 48 ft | 4 kts | 131° |
| 2026-05-04 18:06 | 36.67580 | -4.49371 | 47 ft | 4 kts | 176° |
| 2026-05-04 18:06 | 36.67597 | -4.49366 | 48 ft | 1 kts | 221° |
| 2026-05-04 18:07 | 36.67599 | -4.49364 | 48 ft | 0 kts | 221° |
| 2026-05-04 18:09 | 36.67587 | -4.49377 | 46 ft | 11 kts | 221° |
| 2026-05-04 18:10 | 36.67525 | -4.49468 | 48 ft | 15 kts | 238° |
| 2026-05-04 18:10 | 36.67506 | -4.49592 | 48 ft | 16 kts | 253° |
| 2026-05-04 18:10 | 36.67557 | -4.49710 | 48 ft | 16 kts | 314° |
| 2026-05-04 18:10 | 36.67636 | -4.49819 | 49 ft | 18 kts | 311° |
| 2026-05-04 18:11 | 36.67726 | -4.49881 | 46 ft | 14 kts | 44° |
| 2026-05-04 18:11 | 36.67803 | -4.49845 | 47 ft | 12 kts | 29° |
| 2026-05-04 18:11 | 36.67862 | -4.49779 | 49 ft | 11 kts | 41° |
| 2026-05-04 18:11 | 36.67914 | -4.49723 | 49 ft | 9 kts | 41° |
| 2026-05-04 18:12 | 36.67976 | -4.49657 | 47 ft | 13 kts | 41° |
| 2026-05-04 18:12 | 36.68024 | -4.49603 | 49 ft | 18 kts | 42° |
| 2026-05-04 18:12 | 36.68183 | -4.49428 | 49 ft | 35 kts | 41° |
| 2026-05-04 18:12 | 36.68279 | -4.49262 | 49 ft | 16 kts | 111° |
| 2026-05-04 18:13 | 36.68219 | -4.49113 | 47 ft | 22 kts | 118° |
| 2026-05-04 18:13 | 36.68150 | -4.48950 | 49 ft | 22 kts | 118° |
| 2026-05-04 18:13 | 36.67940 | -4.48452 | 48 ft | 35 kts | 117° |
| 2026-05-04 18:14 | 36.67824 | -4.48176 | 49 ft | 36 kts | 118° |
| 2026-05-04 18:14 | 36.67808 | -4.48071 | 50 ft | 7 kts | 335° |
| 2026-05-04 18:14 | 36.67852 | -4.48069 | 50 ft | 8 kts | 27° |
| 2026-05-04 18:15 | 36.67941 | -4.48026 | 52 ft | 9 kts | 347° |
| 2026-05-04 18:15 | 36.67966 | -4.48068 | 52 ft | 0 kts | 296° |
| 2026-05-04 18:16 | 36.67995 | -4.48140 | 52 ft | 42 kts | 297° |
| 2026-05-04 18:16 | 36.68273 | -4.48799 | 51 ft | 126 kts | 298° |
| 2026-05-04 18:17 | 36.69406 | -4.51329 | 1004 ft | 182 kts | 302° |
| 2026-05-04 18:17 | 36.70209 | -4.52586 | 1881 ft | 191 kts | 311° |
| 2026-05-04 18:17 | 36.72146 | -4.55133 | 3280 ft | 207 kts | 314° |
| 2026-05-04 18:18 | 36.73148 | -4.56426 | 4143 ft | 207 kts | 314° |
| 2026-05-04 18:18 | 36.74148 | -4.57724 | 4999 ft | 208 kts | 313° |
| 2026-05-04 18:18 | 36.75207 | -4.58991 | 5722 ft | 215 kts | 324° |
| 2026-05-04 18:18 | 36.76597 | -4.59759 | 6382 ft | 225 kts | 342° |
| 2026-05-04 18:19 | 36.79681 | -4.60840 | 7751 ft | 236 kts | 346° |
| 2026-05-04 18:19 | 36.81346 | -4.60833 | 8470 ft | 246 kts | 8° |
| 2026-05-04 18:19 | 36.82980 | -4.59962 | 8974 ft | 271 kts | 34° |
| 2026-05-04 18:20 | 36.84437 | -4.58374 | 9620 ft | 283 kts | 39° |
| 2026-05-04 18:20 | 36.85931 | -4.56700 | 9935 ft | 291 kts | 38° |
| 2026-05-04 18:20 | 36.87447 | -4.55015 | 10001 ft | 291 kts | 37° |
| 2026-05-04 18:20 | 36.88939 | -4.53365 | 10014 ft | 290 kts | 38° |
| 2026-05-04 18:21 | 36.90459 | -4.51693 | 10014 ft | 292 kts | 37° |
| 2026-05-04 18:21 | 36.91978 | -4.50019 | 10120 ft | 293 kts | 38° |
| 2026-05-04 18:21 | 36.93509 | -4.48331 | 10912 ft | 294 kts | 38° |
| 2026-05-04 18:21 | 36.95052 | -4.46626 | 11711 ft | 297 kts | 37° |
| 2026-05-04 18:22 | 36.96618 | -4.44896 | 12436 ft | 303 kts | 37° |
| 2026-05-04 18:22 | 36.98230 | -4.43187 | 13190 ft | 304 kts | 30° |
| 2026-05-04 18:22 | 37.00047 | -4.41702 | 13521 ft | 323 kts | 27° |
| 2026-05-04 18:22 | 37.02023 | -4.40152 | 13697 ft | 346 kts | 27° |
| 2026-05-04 18:23 | 37.04134 | -4.38503 | 13910 ft | 366 kts | 27° |
| 2026-05-04 18:23 | 37.06319 | -4.36781 | 14410 ft | 375 kts | 28° |
| 2026-05-04 18:23 | 37.08533 | -4.35021 | 15023 ft | 379 kts | 28° |
| 2026-05-04 18:23 | 37.10768 | -4.33235 | 15649 ft | 383 kts | 28° |
| 2026-05-04 18:24 | 37.13027 | -4.31430 | 16288 ft | 387 kts | 28° |
| 2026-05-04 18:24 | 37.15307 | -4.29609 | 16931 ft | 390 kts | 28° |
| 2026-05-04 18:24 | 37.17611 | -4.27767 | 17571 ft | 394 kts | 28° |
| 2026-05-04 18:24 | 37.19935 | -4.25910 | 18185 ft | 398 kts | 28° |
| 2026-05-04 18:25 | 37.22253 | -4.24059 | 18715 ft | 402 kts | 28° |
| 2026-05-04 18:25 | 37.24620 | -4.22170 | 19252 ft | 404 kts | 28° |
| 2026-05-04 18:25 | 37.27003 | -4.20266 | 19784 ft | 407 kts | 28° |
| 2026-05-04 18:25 | 37.29410 | -4.18338 | 20318 ft | 411 kts | 28° |
| 2026-05-04 18:26 | 37.31824 | -4.16400 | 20849 ft | 414 kts | 28° |
| 2026-05-04 18:26 | 37.34258 | -4.14445 | 21358 ft | 417 kts | 28° |
| 2026-05-04 18:26 | 37.36714 | -4.12472 | 21866 ft | 420 kts | 28° |
| 2026-05-04 18:26 | 37.39185 | -4.10489 | 22374 ft | 423 kts | 28° |
| 2026-05-04 18:27 | 37.41674 | -4.08490 | 22887 ft | 426 kts | 27° |
| 2026-05-04 18:27 | 37.44178 | -4.06477 | 23377 ft | 429 kts | 27° |
| 2026-05-04 18:27 | 37.46702 | -4.04448 | 23797 ft | 432 kts | 27° |
| 2026-05-04 18:27 | 37.49244 | -4.02401 | 24197 ft | 435 kts | 27° |
| 2026-05-04 18:28 | 37.51808 | -4.00334 | 24595 ft | 438 kts | 27° |
| 2026-05-04 18:28 | 37.54383 | -3.98255 | 24986 ft | 441 kts | 27° |
| 2026-05-04 18:28 | 37.56975 | -3.96164 | 25374 ft | 444 kts | 27° |
| 2026-05-04 18:28 | 37.59579 | -3.94063 | 25756 ft | 446 kts | 27° |
| 2026-05-04 18:29 | 37.62206 | -3.91941 | 26125 ft | 449 kts | 27° |
| 2026-05-04 18:29 | 37.64843 | -3.89806 | 26499 ft | 452 kts | 27° |
| 2026-05-04 18:29 | 37.67492 | -3.87658 | 26906 ft | 454 kts | 27° |
| 2026-05-04 18:29 | 37.70158 | -3.85497 | 27282 ft | 457 kts | 27° |
| 2026-05-04 18:30 | 37.75540 | -3.81131 | 27974 ft | 463 kts | 27° |
| 2026-05-04 18:30 | 37.78258 | -3.78918 | 28303 ft | 466 kts | 27° |
| 2026-05-04 18:30 | 37.80991 | -3.76694 | 28629 ft | 468 kts | 26° |
| 2026-05-04 18:31 | 37.83835 | -3.74735 | 28955 ft | 464 kts | 18° |
| 2026-05-04 18:31 | 37.86847 | -3.73315 | 29285 ft | 460 kts | 10° |
| 2026-05-04 18:31 | 37.89918 | -3.72156 | 29643 ft | 462 kts | 10° |
| 2026-05-04 18:31 | 37.93009 | -3.70983 | 29969 ft | 464 kts | 10° |
| 2026-05-04 18:32 | 37.96074 | -3.69818 | 30240 ft | 467 kts | 10° |
| 2026-05-04 18:32 | 37.99230 | -3.68617 | 30507 ft | 469 kts | 10° |
| 2026-05-04 18:32 | 38.02322 | -3.67438 | 30759 ft | 471 kts | 10° |
| 2026-05-04 18:32 | 38.05466 | -3.66233 | 31012 ft | 473 kts | 10° |
| 2026-05-04 18:33 | 38.08619 | -3.65020 | 31263 ft | 475 kts | 10° |
| 2026-05-04 18:33 | 38.11789 | -3.63802 | 31606 ft | 474 kts | 10° |
| 2026-05-04 18:33 | 38.14964 | -3.62714 | 32003 ft | 468 kts | 4° |
| 2026-05-04 18:33 | 38.18161 | -3.62178 | 32352 ft | 460 kts | 356° |
| 2026-05-04 18:34 | 38.21352 | -3.61877 | 32692 ft | 459 kts | 356° |
| 2026-05-04 18:34 | 38.24539 | -3.61575 | 33056 ft | 459 kts | 356° |
| 2026-05-04 18:34 | 38.27722 | -3.61273 | 33414 ft | 458 kts | 356° |
| 2026-05-04 18:34 | 38.30901 | -3.60966 | 33777 ft | 458 kts | 356° |
| 2026-05-04 18:35 | 38.34076 | -3.60656 | 34124 ft | 457 kts | 356° |
| 2026-05-04 18:35 | 38.37244 | -3.60346 | 34423 ft | 457 kts | 356° |
| 2026-05-04 18:35 | 38.40422 | -3.60037 | 34685 ft | 457 kts | 356° |
| 2026-05-04 18:35 | 38.43596 | -3.59728 | 34957 ft | 457 kts | 356° |
| 2026-05-04 18:36 | 38.46768 | -3.59417 | 35213 ft | 457 kts | 356° |
| 2026-05-04 18:36 | 38.49939 | -3.59107 | 35456 ft | 457 kts | 356° |
| 2026-05-04 18:36 | 38.53118 | -3.58797 | 35704 ft | 457 kts | 356° |
| 2026-05-04 18:36 | 38.56291 | -3.58488 | 35917 ft | 458 kts | 356° |
| 2026-05-04 18:37 | 38.59465 | -3.58178 | 35983 ft | 455 kts | 356° |
| 2026-05-04 18:37 | 38.65703 | -3.57568 | 35990 ft | 451 kts | 356° |
| 2026-05-04 18:38 | 38.71997 | -3.56961 | 35989 ft | 450 kts | 356° |
| 2026-05-04 18:38 | 38.78205 | -3.56359 | 35991 ft | 450 kts | 356° |
| 2026-05-04 18:39 | 38.84454 | -3.55745 | 36027 ft | 450 kts | 356° |
| 2026-05-04 18:39 | 38.90699 | -3.55127 | 36012 ft | 450 kts | 356° |
| 2026-05-04 18:40 | 38.96950 | -3.54515 | 36008 ft | 450 kts | 356° |
| 2026-05-04 18:40 | 39.03203 | -3.53893 | 36003 ft | 450 kts | 356° |
| 2026-05-04 18:41 | 39.09460 | -3.53270 | 36016 ft | 450 kts | 356° |
| 2026-05-04 18:41 | 39.15709 | -3.52659 | 36006 ft | 451 kts | 356° |
| 2026-05-04 18:42 | 39.21965 | -3.52035 | 35993 ft | 451 kts | 356° |
| 2026-05-04 18:42 | 39.28225 | -3.51408 | 35991 ft | 451 kts | 356° |
| 2026-05-04 18:43 | 39.34480 | -3.50779 | 36016 ft | 451 kts | 356° |
| 2026-05-04 18:43 | 39.40699 | -3.50156 | 36011 ft | 451 kts | 356° |
| 2026-05-04 18:44 | 39.47001 | -3.49516 | 35995 ft | 451 kts | 356° |
| 2026-05-04 18:44 | 39.53223 | -3.48891 | 36025 ft | 451 kts | 356° |
| 2026-05-04 18:45 | 39.59489 | -3.48264 | 36005 ft | 451 kts | 356° |
| 2026-05-04 18:45 | 39.65753 | -3.47641 | 35994 ft | 451 kts | 356° |
| 2026-05-04 18:46 | 39.72021 | -3.47010 | 35985 ft | 452 kts | 356° |
| 2026-05-04 18:46 | 39.78292 | -3.46372 | 35999 ft | 453 kts | 358° |
| 2026-05-04 18:47 | 39.84577 | -3.45331 | 35992 ft | 457 kts | 1° |
| 2026-05-04 18:47 | 39.90855 | -3.43943 | 35983 ft | 458 kts | 2° |
| 2026-05-04 18:48 | 39.97139 | -3.42566 | 35979 ft | 457 kts | 1° |
| 2026-05-04 18:48 | 40.03434 | -3.41290 | 35997 ft | 458 kts | 1° |
| 2026-05-04 18:49 | 40.09731 | -3.40058 | 35984 ft | 458 kts | 1° |
| 2026-05-04 18:49 | 40.16037 | -3.38805 | 35977 ft | 458 kts | 1° |
| 2026-05-04 18:50 | 40.22345 | -3.37528 | 35990 ft | 459 kts | 1° |
| 2026-05-04 18:50 | 40.28659 | -3.36246 | 35974 ft | 459 kts | 1° |
| 2026-05-04 18:51 | 40.34967 | -3.34963 | 35968 ft | 459 kts | 1° |
| 2026-05-04 18:51 | 40.41236 | -3.33690 | 35972 ft | 459 kts | 1° |
| 2026-05-04 18:52 | 40.47549 | -3.32417 | 35993 ft | 459 kts | 2° |
| 2026-05-04 18:52 | 40.53867 | -3.31132 | 35975 ft | 459 kts | 2° |
| 2026-05-04 18:53 | 40.60187 | -3.29832 | 35968 ft | 460 kts | 2° |
| 2026-05-04 18:53 | 40.66510 | -3.28534 | 35961 ft | 460 kts | 2° |
| 2026-05-04 18:54 | 40.71770 | -3.27457 | 35964 ft | 460 kts | 2° |
| 2026-05-04 18:54 | 40.78091 | -3.26171 | 35958 ft | 460 kts | 2° |
| 2026-05-04 18:55 | 40.84416 | -3.24870 | 35956 ft | 460 kts | 2° |
| 2026-05-04 18:55 | 40.93904 | -3.22809 | 35969 ft | 461 kts | 3° |
| 2026-05-04 18:56 | 41.00237 | -3.21359 | 35971 ft | 461 kts | 3° |
| 2026-05-04 18:56 | 41.06564 | -3.19919 | 35974 ft | 462 kts | 3° |
| 2026-05-04 18:57 | 41.12902 | -3.18491 | 35991 ft | 462 kts | 3° |
| 2026-05-04 18:57 | 41.19252 | -3.17066 | 35989 ft | 462 kts | 3° |
| 2026-05-04 18:58 | 41.25598 | -3.15639 | 35989 ft | 462 kts | 3° |
| 2026-05-04 18:58 | 41.31935 | -3.14207 | 36003 ft | 462 kts | 4° |
| 2026-05-04 18:59 | 41.38283 | -3.12764 | 35999 ft | 462 kts | 4° |
| 2026-05-04 18:59 | 41.44626 | -3.11318 | 35996 ft | 462 kts | 4° |
| 2026-05-04 19:00 | 41.50924 | -3.09892 | 35992 ft | 462 kts | 4° |
| 2026-05-04 19:00 | 41.57274 | -3.08450 | 36009 ft | 463 kts | 4° |
| 2026-05-04 19:01 | 41.63618 | -3.07010 | 36001 ft | 463 kts | 4° |
| 2026-05-04 19:01 | 41.69971 | -3.05566 | 35992 ft | 463 kts | 4° |
| 2026-05-04 19:02 | 41.76326 | -3.04118 | 35997 ft | 463 kts | 4° |
| 2026-05-04 19:02 | 41.82688 | -3.02650 | 35992 ft | 464 kts | 4° |
| 2026-05-04 19:03 | 41.89045 | -3.01186 | 35989 ft | 464 kts | 4° |
| 2026-05-04 19:03 | 41.95407 | -2.99712 | 36013 ft | 464 kts | 5° |
| 2026-05-04 19:04 | 42.01762 | -2.98232 | 36011 ft | 464 kts | 5° |
| 2026-05-04 19:04 | 42.08123 | -2.96758 | 36009 ft | 463 kts | 5° |
| 2026-05-04 19:05 | 42.14481 | -2.95286 | 36005 ft | 463 kts | 5° |
| 2026-05-04 19:05 | 42.20840 | -2.93806 | 36013 ft | 463 kts | 5° |
| 2026-05-04 19:06 | 42.27194 | -2.92317 | 36017 ft | 464 kts | 5° |
| 2026-05-04 19:06 | 42.33549 | -2.90827 | 36020 ft | 464 kts | 5° |
| 2026-05-04 19:07 | 42.39904 | -2.89350 | 36040 ft | 463 kts | 6° |
| 2026-05-04 19:07 | 42.46274 | -2.88168 | 36036 ft | 459 kts | 356° |
| 2026-05-04 19:08 | 42.52629 | -2.88428 | 36032 ft | 456 kts | 353° |
| 2026-05-04 19:08 | 42.58932 | -2.88765 | 36047 ft | 456 kts | 353° |
| 2026-05-04 19:09 | 42.65283 | -2.89104 | 36035 ft | 457 kts | 353° |
| 2026-05-04 19:09 | 42.71639 | -2.89437 | 36033 ft | 457 kts | 353° |
| 2026-05-04 19:10 | 42.78004 | -2.89772 | 36039 ft | 458 kts | 353° |
| 2026-05-04 19:10 | 42.84371 | -2.90102 | 36037 ft | 458 kts | 353° |
| 2026-05-04 19:11 | 42.90733 | -2.90439 | 36039 ft | 458 kts | 353° |
| 2026-05-04 19:11 | 42.97101 | -2.90774 | 36038 ft | 458 kts | 353° |
| 2026-05-04 19:12 | 43.06655 | -2.91275 | 36031 ft | 458 kts | 354° |
| 2026-05-04 19:13 | 43.13034 | -2.91608 | 36023 ft | 459 kts | 354° |
| 2026-05-04 19:13 | 43.19414 | -2.91946 | 36036 ft | 459 kts | 354° |
| 2026-05-04 19:14 | 43.25800 | -2.92286 | 36025 ft | 459 kts | 354° |
| 2026-05-04 19:14 | 43.32199 | -2.92004 | 36022 ft | 465 kts | 7° |
| 2026-05-04 19:15 | 43.38542 | -2.90159 | 36021 ft | 466 kts | 9° |
| 2026-05-04 19:15 | 43.44888 | -2.88289 | 36032 ft | 466 kts | 9° |
| 2026-05-04 19:16 | 43.51232 | -2.86429 | 36032 ft | 466 kts | 9° |
| 2026-05-04 19:16 | 43.57577 | -2.84565 | 36026 ft | 466 kts | 9° |
| 2026-05-04 19:17 | 43.63927 | -2.82696 | 36036 ft | 466 kts | 10° |
| 2026-05-04 19:17 | 43.70271 | -2.80802 | 36032 ft | 466 kts | 10° |
| 2026-05-04 19:18 | 43.76593 | -2.78777 | 36026 ft | 466 kts | 11° |
| 2026-05-04 19:18 | 43.82904 | -2.76671 | 36027 ft | 467 kts | 12° |
| 2026-05-04 19:19 | 43.89219 | -2.74573 | 36021 ft | 467 kts | 11° |
| 2026-05-04 19:19 | 43.95531 | -2.72709 | 36019 ft | 466 kts | 7° |
| 2026-05-04 19:20 | 44.01942 | -2.71362 | 36034 ft | 465 kts | 6° |
| 2026-05-04 19:20 | 44.08367 | -2.70116 | 36024 ft | 468 kts | 6° |
| 2026-05-04 19:21 | 44.14838 | -2.68735 | 36321 ft | 471 kts | 7° |
| 2026-05-04 19:21 | 44.18083 | -2.68004 | 36567 ft | 471 kts | 7° |
| 2026-05-04 19:21 | 44.21318 | -2.67268 | 36834 ft | 471 kts | 7° |
| 2026-05-04 19:21 | 44.24553 | -2.66531 | 37047 ft | 471 kts | 7° |
| 2026-05-04 19:22 | 44.27785 | -2.65796 | 37280 ft | 470 kts | 7° |
| 2026-05-04 19:22 | 44.31015 | -2.65070 | 37524 ft | 470 kts | 7° |
| 2026-05-04 19:22 | 44.34242 | -2.64353 | 37756 ft | 469 kts | 7° |
| 2026-05-04 19:22 | 44.37471 | -2.63640 | 37961 ft | 470 kts | 7° |
| 2026-05-04 19:23 | 44.40660 | -2.62936 | 38025 ft | 469 kts | 7° |
| 2026-05-04 19:23 | 44.47110 | -2.61495 | 38018 ft | 469 kts | 7° |
| 2026-05-04 19:24 | 44.53551 | -2.60044 | 38015 ft | 469 kts | 7° |
| 2026-05-04 19:24 | 44.59995 | -2.58580 | 38023 ft | 469 kts | 7° |
| 2026-05-04 19:25 | 44.66435 | -2.57129 | 38019 ft | 468 kts | 7° |
| 2026-05-04 19:25 | 44.72873 | -2.55675 | 38022 ft | 469 kts | 7° |
| 2026-05-04 19:26 | 44.79326 | -2.54212 | 38025 ft | 469 kts | 7° |
| 2026-05-04 19:26 | 44.85729 | -2.52757 | 38022 ft | 469 kts | 7° |
| 2026-05-04 19:27 | 44.92181 | -2.51289 | 38024 ft | 469 kts | 7° |
| 2026-05-04 19:27 | 44.98629 | -2.49814 | 38032 ft | 469 kts | 8° |
| 2026-05-04 19:28 | 45.05066 | -2.48347 | 38032 ft | 469 kts | 8° |
| 2026-05-04 19:28 | 45.11505 | -2.46866 | 38028 ft | 468 kts | 8° |
| 2026-05-04 19:29 | 45.17936 | -2.45382 | 38027 ft | 468 kts | 8° |
| 2026-05-04 19:29 | 45.24365 | -2.43900 | 38024 ft | 467 kts | 8° |
| 2026-05-04 19:30 | 45.30787 | -2.42428 | 38023 ft | 467 kts | 8° |
| 2026-05-04 19:30 | 45.37204 | -2.40948 | 38024 ft | 467 kts | 8° |
| 2026-05-04 19:31 | 45.43618 | -2.39450 | 38026 ft | 467 kts | 8° |
| 2026-05-04 19:31 | 45.50033 | -2.37952 | 38021 ft | 467 kts | 8° |
| 2026-05-04 19:32 | 45.56450 | -2.36460 | 38023 ft | 467 kts | 8° |
| 2026-05-04 19:32 | 45.62864 | -2.34970 | 38021 ft | 467 kts | 8° |
| 2026-05-04 19:33 | 45.69279 | -2.33470 | 38001 ft | 467 kts | 8° |
| 2026-05-04 19:33 | 45.75694 | -2.31965 | 38007 ft | 467 kts | 8° |
| 2026-05-04 19:34 | 45.82117 | -2.30467 | 38001 ft | 468 kts | 8° |
| 2026-05-04 19:34 | 45.88544 | -2.28945 | 38002 ft | 468 kts | 8° |
| 2026-05-04 19:35 | 45.94920 | -2.27430 | 38009 ft | 468 kts | 8° |
| 2026-05-04 19:35 | 46.01349 | -2.25911 | 38007 ft | 467 kts | 9° |
| 2026-05-04 19:36 | 46.07765 | -2.24390 | 38008 ft | 467 kts | 9° |
| 2026-05-04 19:36 | 46.13093 | -2.23098 | 38006 ft | 467 kts | 9° |
| 2026-05-04 19:37 | 46.19541 | -2.21510 | 38001 ft | 467 kts | 9° |
| 2026-05-04 19:37 | 46.25909 | -2.19943 | 38003 ft | 467 kts | 9° |
| 2026-05-04 19:38 | 46.32316 | -2.18373 | 38004 ft | 467 kts | 9° |
| 2026-05-04 19:38 | 46.38726 | -2.16811 | 38001 ft | 467 kts | 9° |
| 2026-05-04 19:39 | 46.45134 | -2.15231 | 38006 ft | 467 kts | 9° |
| 2026-05-04 19:39 | 46.51542 | -2.13649 | 38005 ft | 467 kts | 9° |
| 2026-05-04 19:40 | 46.57948 | -2.12066 | 38013 ft | 467 kts | 9° |
| 2026-05-04 19:40 | 46.64352 | -2.10476 | 38014 ft | 466 kts | 9° |
| 2026-05-04 19:41 | 46.70749 | -2.08881 | 38001 ft | 466 kts | 9° |
| 2026-05-04 19:41 | 46.77143 | -2.07293 | 38002 ft | 466 kts | 9° |
| 2026-05-04 19:42 | 46.83530 | -2.05696 | 38005 ft | 465 kts | 9° |
| 2026-05-04 19:42 | 46.89915 | -2.04097 | 37987 ft | 465 kts | 9° |
| 2026-05-04 19:43 | 46.96296 | -2.02493 | 37987 ft | 466 kts | 9° |
| 2026-05-04 19:43 | 47.02689 | -2.00880 | 37994 ft | 466 kts | 9° |
| 2026-05-04 19:44 | 47.09076 | -1.99296 | 37996 ft | 465 kts | 9° |
| 2026-05-04 19:44 | 47.15459 | -1.97724 | 37992 ft | 465 kts | 9° |
| 2026-05-04 19:45 | 47.21830 | -1.96144 | 37990 ft | 464 kts | 9° |
| 2026-05-04 19:45 | 47.28200 | -1.94557 | 37990 ft | 464 kts | 9° |
| 2026-05-04 19:46 | 47.34529 | -1.92735 | 37990 ft | 464 kts | 18° |
| 2026-05-04 19:46 | 47.40380 | -1.88933 | 37993 ft | 463 kts | 27° |
| 2026-05-04 19:47 | 47.46185 | -1.84756 | 37979 ft | 464 kts | 26° |
| 2026-05-04 19:47 | 47.51993 | -1.80601 | 37972 ft | 464 kts | 26° |
| 2026-05-04 19:48 | 47.57795 | -1.76411 | 37976 ft | 464 kts | 26° |
| 2026-05-04 19:48 | 47.63594 | -1.72196 | 37981 ft | 464 kts | 26° |
| 2026-05-04 19:49 | 47.69396 | -1.67982 | 37975 ft | 464 kts | 26° |
| 2026-05-04 19:49 | 47.75202 | -1.63772 | 37965 ft | 465 kts | 26° |
| 2026-05-04 19:50 | 47.81010 | -1.59530 | 37971 ft | 465 kts | 26° |
| 2026-05-04 19:50 | 47.86813 | -1.55275 | 37986 ft | 464 kts | 26° |
| 2026-05-04 19:51 | 47.92609 | -1.51019 | 37992 ft | 464 kts | 26° |
| 2026-05-04 19:51 | 47.98403 | -1.46769 | 37992 ft | 464 kts | 25° |
| 2026-05-04 19:52 | 48.04579 | -1.44116 | 37989 ft | 463 kts | 5° |
| 2026-05-04 19:52 | 48.10996 | -1.44181 | 37989 ft | 461 kts | 356° |
| 2026-05-04 19:53 | 48.17411 | -1.44650 | 37992 ft | 462 kts | 356° |
| 2026-05-04 19:53 | 48.23831 | -1.45098 | 37998 ft | 462 kts | 356° |
| 2026-05-04 19:54 | 48.30247 | -1.45553 | 38004 ft | 461 kts | 356° |
| 2026-05-04 19:54 | 48.36648 | -1.46015 | 38006 ft | 460 kts | 356° |
| 2026-05-04 19:55 | 48.43038 | -1.46480 | 38008 ft | 459 kts | 356° |
| 2026-05-04 19:55 | 48.49381 | -1.46936 | 38008 ft | 459 kts | 356° |
| 2026-05-04 19:56 | 48.55747 | -1.47396 | 38008 ft | 458 kts | 356° |
| 2026-05-04 19:56 | 48.58915 | -1.47628 | 37740 ft | 454 kts | 356° |
| 2026-05-04 19:56 | 48.62063 | -1.47859 | 37142 ft | 453 kts | 356° |
| 2026-05-04 19:56 | 48.65217 | -1.48089 | 36445 ft | 454 kts | 357° |
| 2026-05-04 19:57 | 48.68377 | -1.48322 | 36086 ft | 455 kts | 357° |
| 2026-05-04 19:57 | 48.71559 | -1.48559 | 35958 ft | 458 kts | 357° |
| 2026-05-04 19:57 | 48.74748 | -1.48795 | 36000 ft | 460 kts | 357° |
| 2026-05-04 19:58 | 48.81150 | -1.49258 | 35997 ft | 461 kts | 357° |
| 2026-05-04 19:58 | 48.87560 | -1.49725 | 35999 ft | 461 kts | 357° |
| 2026-05-04 19:59 | 48.93966 | -1.49443 | 36003 ft | 461 kts | 5° |
| 2026-05-04 19:59 | 49.00363 | -1.48688 | 36002 ft | 461 kts | 5° |
| 2026-05-04 20:00 | 49.06771 | -1.47926 | 36002 ft | 461 kts | 5° |
| 2026-05-04 20:00 | 49.13172 | -1.47166 | 36005 ft | 460 kts | 5° |
| 2026-05-04 20:01 | 49.19566 | -1.46400 | 36012 ft | 460 kts | 5° |
| 2026-05-04 20:01 | 49.25912 | -1.45642 | 36013 ft | 460 kts | 5° |
| 2026-05-04 20:02 | 49.32338 | -1.44880 | 36011 ft | 460 kts | 5° |
| 2026-05-04 20:02 | 49.38710 | -1.44118 | 36011 ft | 460 kts | 5° |
| 2026-05-04 20:03 | 49.45085 | -1.43361 | 36011 ft | 459 kts | 4° |
| 2026-05-04 20:03 | 49.51467 | -1.42597 | 36010 ft | 459 kts | 5° |
| 2026-05-04 20:04 | 49.57836 | -1.41821 | 36012 ft | 459 kts | 5° |
| 2026-05-04 20:04 | 49.64210 | -1.41127 | 36014 ft | 459 kts | 3° |
| 2026-05-04 20:05 | 49.70582 | -1.40606 | 36016 ft | 459 kts | 3° |
| 2026-05-04 20:05 | 49.76925 | -1.40097 | 36018 ft | 458 kts | 3° |
| 2026-05-04 20:06 | 49.83278 | -1.39545 | 36025 ft | 457 kts | 3° |
| 2026-05-04 20:06 | 49.89625 | -1.38975 | 36027 ft | 456 kts | 3° |
| 2026-05-04 20:07 | 49.95958 | -1.38397 | 36028 ft | 456 kts | 3° |
| 2026-05-04 20:07 | 50.02256 | -1.37492 | 36028 ft | 454 kts | 9° |
| 2026-05-04 20:08 | 50.08489 | -1.35946 | 36009 ft | 454 kts | 9° |
| 2026-05-04 20:08 | 50.14728 | -1.34382 | 36000 ft | 455 kts | 9° |
| 2026-05-04 20:09 | 50.20982 | -1.32817 | 36002 ft | 455 kts | 9° |
| 2026-05-04 20:09 | 50.27237 | -1.31260 | 36007 ft | 455 kts | 9° |
| 2026-05-04 20:10 | 50.33489 | -1.29689 | 36013 ft | 455 kts | 9° |
| 2026-05-04 20:10 | 50.39735 | -1.28123 | 36013 ft | 454 kts | 9° |
| 2026-05-04 20:11 | 50.45978 | -1.26551 | 36019 ft | 453 kts | 9° |
| 2026-05-04 20:11 | 50.51961 | -1.23602 | 36020 ft | 451 kts | 28° |
| 2026-05-04 20:12 | 50.57304 | -1.18492 | 36018 ft | 450 kts | 33° |
| 2026-05-04 20:12 | 50.62594 | -1.13236 | 36019 ft | 450 kts | 33° |
| 2026-05-04 20:13 | 50.67887 | -1.07982 | 36025 ft | 449 kts | 33° |
| 2026-05-04 20:13 | 50.73172 | -1.02707 | 36031 ft | 449 kts | 33° |
| 2026-05-04 20:14 | 50.78445 | -0.97420 | 36036 ft | 449 kts | 33° |
| 2026-05-04 20:14 | 50.83955 | -0.92833 | 36017 ft | 449 kts | 19° |
| 2026-05-04 20:15 | 50.89895 | -0.89769 | 36017 ft | 449 kts | 18° |
| 2026-05-04 20:15 | 50.95791 | -0.86723 | 36027 ft | 448 kts | 18° |
| 2026-05-04 20:16 | 51.01710 | -0.83651 | 36033 ft | 447 kts | 18° |
| 2026-05-04 20:16 | 51.06668 | -0.81068 | 36037 ft | 447 kts | 18° |
| 2026-05-04 20:17 | 51.12573 | -0.77979 | 36033 ft | 447 kts | 18° |
| 2026-05-04 20:17 | 51.18488 | -0.74887 | 36032 ft | 447 kts | 18° |
| 2026-05-04 20:18 | 51.24398 | -0.71783 | 36034 ft | 447 kts | 18° |
| 2026-05-04 20:18 | 51.30265 | -0.68703 | 36032 ft | 447 kts | 18° |
| 2026-05-04 20:19 | 51.36184 | -0.65592 | 36038 ft | 447 kts | 18° |
| 2026-05-04 20:19 | 51.42080 | -0.62474 | 36037 ft | 446 kts | 18° |
| 2026-05-04 20:20 | 51.47983 | -0.59350 | 36036 ft | 446 kts | 18° |
| 2026-05-04 20:20 | 51.53870 | -0.56230 | 36035 ft | 445 kts | 18° |
| 2026-05-04 20:21 | 51.59755 | -0.53093 | 36029 ft | 445 kts | 18° |
| 2026-05-04 20:21 | 51.68567 | -0.48364 | 36050 ft | 445 kts | 18° |
| 2026-05-04 20:22 | 51.74460 | -0.45311 | 36047 ft | 444 kts | 12° |
| 2026-05-04 20:22 | 51.80583 | -0.44742 | 36044 ft | 442 kts | 351° |
| 2026-05-04 20:23 | 51.83576 | -0.45785 | 36041 ft | 440 kts | 340° |
| 2026-05-04 20:23 | 51.86399 | -0.47659 | 35938 ft | 439 kts | 330° |
| 2026-05-04 20:23 | 51.89033 | -0.50148 | 35689 ft | 439 kts | 327° |
| 2026-05-04 20:23 | 51.91648 | -0.52702 | 35440 ft | 439 kts | 327° |
| 2026-05-04 20:24 | 51.94259 | -0.55253 | 35192 ft | 437 kts | 327° |
| 2026-05-04 20:24 | 51.96861 | -0.57792 | 34726 ft | 434 kts | 327° |
| 2026-05-04 20:24 | 51.99440 | -0.60314 | 34199 ft | 432 kts | 327° |
| 2026-05-04 20:24 | 52.02007 | -0.62826 | 33627 ft | 430 kts | 327° |
| 2026-05-04 20:25 | 52.04555 | -0.65319 | 33106 ft | 425 kts | 327° |
| 2026-05-04 20:25 | 52.07077 | -0.67791 | 32603 ft | 421 kts | 327° |
| 2026-05-04 20:25 | 52.09576 | -0.70244 | 32093 ft | 418 kts | 327° |
| 2026-05-04 20:25 | 52.12021 | -0.72650 | 31607 ft | 414 kts | 326° |
| 2026-05-04 20:26 | 52.14512 | -0.75104 | 31116 ft | 411 kts | 326° |
| 2026-05-04 20:26 | 52.16916 | -0.77478 | 30650 ft | 407 kts | 326° |
| 2026-05-04 20:26 | 52.19330 | -0.79864 | 30188 ft | 404 kts | 326° |
| 2026-05-04 20:26 | 52.21717 | -0.82227 | 29696 ft | 399 kts | 326° |
| 2026-05-04 20:27 | 52.24077 | -0.84567 | 29252 ft | 394 kts | 326° |
| 2026-05-04 20:27 | 52.26406 | -0.86878 | 28826 ft | 388 kts | 326° |
| 2026-05-04 20:27 | 52.28695 | -0.89151 | 28429 ft | 383 kts | 326° |
| 2026-05-04 20:27 | 52.30958 | -0.91398 | 28008 ft | 377 kts | 326° |
| 2026-05-04 20:28 | 52.33185 | -0.93617 | 27602 ft | 372 kts | 326° |
| 2026-05-04 20:28 | 52.35383 | -0.95813 | 27193 ft | 368 kts | 326° |
| 2026-05-04 20:28 | 52.37554 | -0.97978 | 26786 ft | 364 kts | 325° |
| 2026-05-04 20:28 | 52.39706 | -1.00130 | 26376 ft | 360 kts | 325° |
| 2026-05-04 20:29 | 52.41836 | -1.02262 | 25970 ft | 357 kts | 325° |
| 2026-05-04 20:29 | 52.43945 | -1.04374 | 25544 ft | 355 kts | 325° |
| 2026-05-04 20:29 | 52.46043 | -1.06478 | 25124 ft | 352 kts | 325° |
| 2026-05-04 20:29 | 52.48129 | -1.08571 | 24686 ft | 350 kts | 324° |
| 2026-05-04 20:30 | 52.50207 | -1.10657 | 24250 ft | 349 kts | 324° |
| 2026-05-04 20:30 | 52.52250 | -1.12709 | 23830 ft | 348 kts | 324° |
| 2026-05-04 20:30 | 52.54311 | -1.14782 | 23343 ft | 347 kts | 323° |
| 2026-05-04 20:30 | 52.56359 | -1.16846 | 22889 ft | 344 kts | 324° |
| 2026-05-04 20:31 | 52.58393 | -1.18900 | 22458 ft | 341 kts | 324° |
| 2026-05-04 20:31 | 52.60408 | -1.20941 | 22036 ft | 339 kts | 324° |
| 2026-05-04 20:31 | 52.62405 | -1.22962 | 21615 ft | 336 kts | 324° |
| 2026-05-04 20:31 | 52.64393 | -1.24971 | 21205 ft | 334 kts | 324° |
| 2026-05-04 20:32 | 52.66366 | -1.26967 | 20791 ft | 332 kts | 325° |
| 2026-05-04 20:32 | 52.68358 | -1.28981 | 20367 ft | 331 kts | 325° |
| 2026-05-04 20:32 | 52.70292 | -1.30933 | 19969 ft | 330 kts | 325° |
| 2026-05-04 20:32 | 52.72260 | -1.32927 | 19553 ft | 333 kts | 325° |
| 2026-05-04 20:33 | 52.74237 | -1.34945 | 19162 ft | 333 kts | 326° |
| 2026-05-04 20:33 | 52.76206 | -1.36960 | 18746 ft | 332 kts | 326° |
| 2026-05-04 20:33 | 52.78173 | -1.38971 | 18320 ft | 332 kts | 326° |
| 2026-05-04 20:33 | 52.80134 | -1.40973 | 17871 ft | 331 kts | 326° |
| 2026-05-04 20:34 | 52.82089 | -1.42972 | 17461 ft | 329 kts | 326° |
| 2026-05-04 20:34 | 52.84029 | -1.44960 | 17044 ft | 327 kts | 326° |
| 2026-05-04 20:34 | 52.85962 | -1.46943 | 16640 ft | 326 kts | 326° |
| 2026-05-04 20:34 | 52.87885 | -1.48913 | 16236 ft | 325 kts | 326° |
| 2026-05-04 20:35 | 52.89780 | -1.50856 | 15827 ft | 324 kts | 326° |
| 2026-05-04 20:35 | 52.91696 | -1.52824 | 15412 ft | 324 kts | 326° |
| 2026-05-04 20:35 | 52.93608 | -1.54791 | 15010 ft | 323 kts | 326° |
| 2026-05-04 20:35 | 52.95514 | -1.56758 | 14604 ft | 323 kts | 326° |
| 2026-05-04 20:36 | 52.97420 | -1.58729 | 14209 ft | 322 kts | 326° |
| 2026-05-04 20:36 | 52.99319 | -1.60702 | 13802 ft | 322 kts | 326° |
| 2026-05-04 20:36 | 53.01219 | -1.62677 | 13365 ft | 321 kts | 326° |
| 2026-05-04 20:36 | 53.03107 | -1.64632 | 12963 ft | 319 kts | 327° |
| 2026-05-04 20:37 | 53.04964 | -1.66629 | 12562 ft | 316 kts | 321° |
| 2026-05-04 20:37 | 53.06528 | -1.69151 | 12171 ft | 312 kts | 309° |
| 2026-05-04 20:37 | 53.07936 | -1.71890 | 11787 ft | 310 kts | 309° |
| 2026-05-04 20:37 | 53.09332 | -1.74601 | 11390 ft | 308 kts | 310° |
| 2026-05-04 20:38 | 53.10716 | -1.77279 | 11180 ft | 300 kts | 310° |
| 2026-05-04 20:38 | 53.12058 | -1.79875 | 10956 ft | 293 kts | 310° |
| 2026-05-04 20:38 | 53.13378 | -1.82437 | 10594 ft | 289 kts | 310° |
| 2026-05-04 20:38 | 53.14679 | -1.84966 | 9977 ft | 286 kts | 310° |
| 2026-05-04 20:39 | 53.15960 | -1.87463 | 9524 ft | 281 kts | 310° |
| 2026-05-04 20:39 | 53.17232 | -1.89944 | 9173 ft | 281 kts | 310° |
| 2026-05-04 20:39 | 53.18495 | -1.92406 | 8813 ft | 279 kts | 310° |
| 2026-05-04 20:39 | 53.19750 | -1.94858 | 8464 ft | 277 kts | 310° |
| 2026-05-04 20:40 | 53.20984 | -1.97269 | 8259 ft | 268 kts | 310° |
| 2026-05-04 20:40 | 53.22175 | -1.99590 | 8095 ft | 258 kts | 312° |
| 2026-05-04 20:40 | 53.23544 | -2.01440 | 7961 ft | 248 kts | 331° |
| 2026-05-04 20:40 | 53.25154 | -2.02464 | 7894 ft | 257 kts | 347° |
| 2026-05-04 20:41 | 53.26945 | -2.02574 | 7512 ft | 258 kts | 3° |
| 2026-05-04 20:41 | 53.28742 | -2.02335 | 7107 ft | 259 kts | 3° |
| 2026-05-04 20:41 | 53.30525 | -2.02103 | 6813 ft | 255 kts | 3° |
| 2026-05-04 20:41 | 53.32288 | -2.01879 | 6467 ft | 253 kts | 3° |
| 2026-05-04 20:42 | 53.34043 | -2.01664 | 6080 ft | 252 kts | 2° |
| 2026-05-04 20:42 | 53.35791 | -2.01137 | 5436 ft | 262 kts | 22° |
| 2026-05-04 20:42 | 53.37299 | -1.99406 | 4954 ft | 265 kts | 39° |
| 2026-05-04 20:42 | 53.38667 | -1.97350 | 4614 ft | 260 kts | 41° |
| 2026-05-04 20:43 | 53.39967 | -1.95341 | 4476 ft | 248 kts | 41° |
| 2026-05-04 20:43 | 53.41203 | -1.93425 | 4345 ft | 237 kts | 41° |
| 2026-05-04 20:43 | 53.42526 | -1.91930 | 4211 ft | 224 kts | 19° |
| 2026-05-04 20:43 | 53.44013 | -1.91512 | 4073 ft | 213 kts | 354° |
| 2026-05-04 20:44 | 53.45406 | -1.92132 | 3937 ft | 204 kts | 331° |
| 2026-05-04 20:44 | 53.46489 | -1.93582 | 3814 ft | 197 kts | 308° |
| 2026-05-04 20:44 | 53.47193 | -1.95514 | 3672 ft | 192 kts | 299° |
| 2026-05-04 20:44 | 53.47829 | -1.97446 | 3532 ft | 187 kts | 297° |
| 2026-05-04 20:45 | 53.48131 | -1.99540 | 3326 ft | 186 kts | 269° |
| 2026-05-04 20:45 | 53.47783 | -2.01625 | 3105 ft | 189 kts | 239° |
| 2026-05-04 20:45 | 53.46989 | -2.03360 | 3009 ft | 184 kts | 232° |
| 2026-05-04 20:45 | 53.46212 | -2.04955 | 2979 ft | 168 kts | 233° |
| 2026-05-04 20:46 | 53.45517 | -2.06396 | 2986 ft | 153 kts | 234° |
| 2026-05-04 20:46 | 53.44860 | -2.07766 | 2938 ft | 148 kts | 233° |
| 2026-05-04 20:46 | 53.44217 | -2.09106 | 2805 ft | 146 kts | 233° |
| 2026-05-04 20:46 | 53.43582 | -2.10431 | 2650 ft | 146 kts | 234° |
| 2026-05-04 20:47 | 53.42947 | -2.11755 | 2463 ft | 146 kts | 234° |
| 2026-05-04 20:47 | 53.42311 | -2.13082 | 2265 ft | 146 kts | 234° |
| 2026-05-04 20:47 | 53.41676 | -2.14402 | 2066 ft | 145 kts | 234° |
| 2026-05-04 20:47 | 53.41042 | -2.15723 | 1885 ft | 144 kts | 235° |
| 2026-05-04 20:48 | 53.40425 | -2.17006 | 1685 ft | 140 kts | 235° |
| 2026-05-04 20:48 | 53.39821 | -2.18262 | 1490 ft | 137 kts | 235° |
| 2026-05-04 20:48 | 53.39222 | -2.19508 | 1299 ft | 137 kts | 234° |
| 2026-05-04 20:48 | 53.38628 | -2.20742 | 1106 ft | 136 kts | 233° |
| 2026-05-04 20:49 | 53.38034 | -2.21976 | 916 ft | 135 kts | 233° |
| 2026-05-04 20:49 | 53.37447 | -2.23194 | 723 ft | 133 kts | 234° |
| 2026-05-04 20:49 | 53.36856 | -2.24421 | 568 ft | 136 kts | 233° |
| 2026-05-04 20:49 | 53.36267 | -2.25642 | 330 ft | 133 kts | 234° |
| 2026-05-04 20:50 | 53.35725 | -2.26792 | 238 ft | 111 kts | 230° |
| 2026-05-04 20:50 | 53.35361 | -2.27537 | 249 ft | 54 kts | 231° |
| 2026-05-04 20:50 | 53.35256 | -2.27897 | 252 ft | 28 kts | 258° |
| 2026-05-04 20:50 | 53.35233 | -2.28142 | 253 ft | 16 kts | 262° |
| 2026-05-04 20:51 | 53.35294 | -2.28190 | 254 ft | 14 kts | 35° |
| 2026-05-04 20:51 | 53.35362 | -2.28072 | 253 ft | 15 kts | 44° |